sensor_id;sensor_type;location;lat;lon;timestamp;P1;durP1;ratioP1;P2;durP2;ratioP2
12112;SDS011;6120;52.250;8.478;2023-03-14T00:00:16;4.22;;;1.60;;
12112;SDS011;6120;52.250;8.478;2023-03-14T00:02:43;4.93;;;1.70;;
12112;SDS011;6120;52.250;8.478;2023-03-14T00:05:10;4.25;;;1.70;;
12112;SDS011;6120;52.250;8.478;2023-03-14T00:07:37;7.30;;;1.58;;
12112;SDS011;6120;52.250;8.478;2023-03-14T00:10:06;5.93;;;1.70;;
12112;SDS011;6120;52.250;8.478;2023-03-14T00:12:34;4.82;;;1.50;;
12112;SDS011;6120;52.250;8.478;2023-03-14T00:15:01;6.13;;;1.65;;
12112;SDS011;6120;52.250;8.478;2023-03-14T00:17:30;5.10;;;1.38;;
12112;SDS011;6120;52.250;8.478;2023-03-14T00:19:57;6.85;;;1.70;;
12112;SDS011;6120;52.250;8.478;2023-03-14T00:22:24;3.90;;;1.58;;
12112;SDS011;6120;52.250;8.478;2023-03-14T00:24:50;6.60;;;2.05;;
12112;SDS011;6120;52.250;8.478;2023-03-14T00:27:17;5.07;;;1.48;;
12112;SDS011;6120;52.250;8.478;2023-03-14T00:29:43;4.35;;;1.50;;
12112;SDS011;6120;52.250;8.478;2023-03-14T00:32:10;6.97;;;1.70;;
12112;SDS011;6120;52.250;8.478;2023-03-14T00:34:37;7.10;;;1.60;;
12112;SDS011;6120;52.250;8.478;2023-03-14T00:37:04;5.83;;;1.50;;
12112;SDS011;6120;52.250;8.478;2023-03-14T00:39:31;5.95;;;1.40;;
12112;SDS011;6120;52.250;8.478;2023-03-14T00:41:57;6.40;;;1.58;;
12112;SDS011;6120;52.250;8.478;2023-03-14T00:44:24;5.30;;;1.58;;
12112;SDS011;6120;52.250;8.478;2023-03-14T00:46:51;6.53;;;1.55;;
12112;SDS011;6120;52.250;8.478;2023-03-14T00:49:17;7.85;;;1.65;;
12112;SDS011;6120;52.250;8.478;2023-03-14T00:51:44;10.18;;;1.88;;
12112;SDS011;6120;52.250;8.478;2023-03-14T00:54:10;4.95;;;1.45;;
12112;SDS011;6120;52.250;8.478;2023-03-14T00:56:37;6.45;;;1.40;;
12112;SDS011;6120;52.250;8.478;2023-03-14T00:59:04;10.85;;;1.67;;
12112;SDS011;6120;52.250;8.478;2023-03-14T01:01:30;8.82;;;2.28;;
12112;SDS011;6120;52.250;8.478;2023-03-14T01:03:57;3.92;;;1.90;;
12112;SDS011;6120;52.250;8.478;2023-03-14T01:06:25;6.40;;;2.03;;
12112;SDS011;6120;52.250;8.478;2023-03-14T01:08:53;8.32;;;1.90;;
12112;SDS011;6120;52.250;8.478;2023-03-14T01:11:25;4.43;;;1.48;;
12112;SDS011;6120;52.250;8.478;2023-03-14T01:14:01;5.78;;;1.35;;
12112;SDS011;6120;52.250;8.478;2023-03-14T01:16:29;4.85;;;1.42;;
12112;SDS011;6120;52.250;8.478;2023-03-14T01:19:00;3.70;;;1.35;;
12112;SDS011;6120;52.250;8.478;2023-03-14T01:21:28;6.38;;;1.83;;
12112;SDS011;6120;52.250;8.478;2023-03-14T01:23:57;7.90;;;1.45;;
12112;SDS011;6120;52.250;8.478;2023-03-14T01:28:53;3.95;;;1.35;;
12112;SDS011;6120;52.250;8.478;2023-03-14T01:31:20;12.05;;;2.13;;
12112;SDS011;6120;52.250;8.478;2023-03-14T01:33:47;7.53;;;1.35;;
12112;SDS011;6120;52.250;8.478;2023-03-14T01:36:14;5.53;;;1.38;;
12112;SDS011;6120;52.250;8.478;2023-03-14T01:38:41;5.72;;;1.38;;
12112;SDS011;6120;52.250;8.478;2023-03-14T01:41:09;7.30;;;1.70;;
12112;SDS011;6120;52.250;8.478;2023-03-14T01:43:39;4.78;;;1.30;;
12112;SDS011;6120;52.250;8.478;2023-03-14T01:48:36;4.10;;;1.20;;
12112;SDS011;6120;52.250;8.478;2023-03-14T01:51:06;7.88;;;1.70;;
12112;SDS011;6120;52.250;8.478;2023-03-14T01:53:35;5.82;;;1.65;;
12112;SDS011;6120;52.250;8.478;2023-03-14T01:56:02;4.50;;;1.48;;
12112;SDS011;6120;52.250;8.478;2023-03-14T01:58:30;8.07;;;1.63;;
12112;SDS011;6120;52.250;8.478;2023-03-14T02:03:25;9.25;;;2.55;;
12112;SDS011;6120;52.250;8.478;2023-03-14T02:05:53;5.35;;;1.30;;
12112;SDS011;6120;52.250;8.478;2023-03-14T02:08:22;7.47;;;1.70;;
12112;SDS011;6120;52.250;8.478;2023-03-14T02:10:49;5.93;;;1.20;;
12112;SDS011;6120;52.250;8.478;2023-03-14T02:13:17;5.38;;;1.20;;
12112;SDS011;6120;52.250;8.478;2023-03-14T02:15:45;12.68;;;1.45;;
12112;SDS011;6120;52.250;8.478;2023-03-14T02:18:12;4.78;;;1.15;;
12112;SDS011;6120;52.250;8.478;2023-03-14T02:23:33;6.15;;;1.15;;
12112;SDS011;6120;52.250;8.478;2023-03-14T02:26:09;7.15;;;1.40;;
12112;SDS011;6120;52.250;8.478;2023-03-14T02:28:38;4.45;;;1.20;;
12112;SDS011;6120;52.250;8.478;2023-03-14T02:31:04;6.57;;;1.40;;
12112;SDS011;6120;52.250;8.478;2023-03-14T02:33:31;6.82;;;1.35;;
12112;SDS011;6120;52.250;8.478;2023-03-14T02:36:02;5.10;;;1.15;;
12112;SDS011;6120;52.250;8.478;2023-03-14T02:41:26;5.15;;;1.40;;
12112;SDS011;6120;52.250;8.478;2023-03-14T02:43:53;4.13;;;1.55;;
12112;SDS011;6120;52.250;8.478;2023-03-14T02:46:20;4.53;;;1.25;;
12112;SDS011;6120;52.250;8.478;2023-03-14T02:48:55;7.27;;;1.50;;
12112;SDS011;6120;52.250;8.478;2023-03-14T02:51:24;3.97;;;1.05;;
12112;SDS011;6120;52.250;8.478;2023-03-14T02:53:52;5.13;;;1.02;;
12112;SDS011;6120;52.250;8.478;2023-03-14T02:56:19;2.10;;;1.00;;
12112;SDS011;6120;52.250;8.478;2023-03-14T02:58:45;6.22;;;1.05;;
12112;SDS011;6120;52.250;8.478;2023-03-14T03:01:12;3.35;;;0.88;;
12112;SDS011;6120;52.250;8.478;2023-03-14T03:03:38;4.72;;;1.27;;
12112;SDS011;6120;52.250;8.478;2023-03-14T03:06:05;2.95;;;0.75;;
12112;SDS011;6120;52.250;8.478;2023-03-14T03:08:32;5.63;;;1.10;;
12112;SDS011;6120;52.250;8.478;2023-03-14T03:10:59;1.27;;;0.77;;
12112;SDS011;6120;52.250;8.478;2023-03-14T03:13:26;5.65;;;1.10;;
12112;SDS011;6120;52.250;8.478;2023-03-14T03:15:52;5.80;;;1.10;;
12112;SDS011;6120;52.250;8.478;2023-03-14T03:18:19;4.93;;;0.93;;
12112;SDS011;6120;52.250;8.478;2023-03-14T03:20:46;3.42;;;0.80;;
12112;SDS011;6120;52.250;8.478;2023-03-14T03:23:13;1.90;;;0.70;;
12112;SDS011;6120;52.250;8.478;2023-03-14T03:25:40;2.10;;;0.82;;
12112;SDS011;6120;52.250;8.478;2023-03-14T03:28:06;3.67;;;0.68;;
12112;SDS011;6120;52.250;8.478;2023-03-14T03:30:37;4.07;;;0.70;;
12112;SDS011;6120;52.250;8.478;2023-03-14T03:33:05;2.35;;;0.80;;
12112;SDS011;6120;52.250;8.478;2023-03-14T03:35:32;3.08;;;0.90;;
12112;SDS011;6120;52.250;8.478;2023-03-14T03:37:59;2.85;;;0.73;;
12112;SDS011;6120;52.250;8.478;2023-03-14T03:40:25;3.53;;;0.90;;
12112;SDS011;6120;52.250;8.478;2023-03-14T03:42:52;7.38;;;1.10;;
12112;SDS011;6120;52.250;8.478;2023-03-14T03:45:19;4.68;;;1.08;;
12112;SDS011;6120;52.250;8.478;2023-03-14T03:47:45;3.15;;;0.90;;
12112;SDS011;6120;52.250;8.478;2023-03-14T03:50:12;4.82;;;1.08;;
12112;SDS011;6120;52.250;8.478;2023-03-14T03:52:39;3.97;;;1.17;;
12112;SDS011;6120;52.250;8.478;2023-03-14T03:55:05;6.95;;;1.52;;
12112;SDS011;6120;52.250;8.478;2023-03-14T03:57:32;5.57;;;1.02;;
12112;SDS011;6120;52.250;8.478;2023-03-14T03:59:59;5.57;;;1.02;;
12112;SDS011;6120;52.250;8.478;2023-03-14T04:02:25;3.72;;;1.33;;
12112;SDS011;6120;52.250;8.478;2023-03-14T04:04:52;5.07;;;1.05;;
12112;SDS011;6120;52.250;8.478;2023-03-14T04:07:19;4.00;;;1.20;;
12112;SDS011;6120;52.250;8.478;2023-03-14T04:09:45;5.25;;;1.10;;
12112;SDS011;6120;52.250;8.478;2023-03-14T04:12:12;4.90;;;1.60;;
12112;SDS011;6120;52.250;8.478;2023-03-14T04:14:39;4.38;;;1.08;;
12112;SDS011;6120;52.250;8.478;2023-03-14T04:17:07;3.85;;;1.48;;
12112;SDS011;6120;52.250;8.478;2023-03-14T04:19:34;7.15;;;1.30;;
12112;SDS011;6120;52.250;8.478;2023-03-14T04:22:00;5.82;;;1.50;;
12112;SDS011;6120;52.250;8.478;2023-03-14T04:24:27;2.50;;;1.13;;
12112;SDS011;6120;52.250;8.478;2023-03-14T04:26:53;5.88;;;1.40;;
12112;SDS011;6120;52.250;8.478;2023-03-14T04:29:20;4.20;;;1.15;;
12112;SDS011;6120;52.250;8.478;2023-03-14T04:31:47;6.75;;;1.58;;
12112;SDS011;6120;52.250;8.478;2023-03-14T04:34:13;4.00;;;1.70;;
12112;SDS011;6120;52.250;8.478;2023-03-14T04:36:40;6.78;;;2.17;;
12112;SDS011;6120;52.250;8.478;2023-03-14T04:39:06;10.02;;;1.88;;
12112;SDS011;6120;52.250;8.478;2023-03-14T04:41:33;8.38;;;2.30;;
12112;SDS011;6120;52.250;8.478;2023-03-14T04:44:00;10.63;;;2.50;;
12112;SDS011;6120;52.250;8.478;2023-03-14T04:46:26;10.18;;;2.05;;
12112;SDS011;6120;52.250;8.478;2023-03-14T04:48:53;8.13;;;2.45;;
12112;SDS011;6120;52.250;8.478;2023-03-14T04:51:20;8.95;;;2.70;;
12112;SDS011;6120;52.250;8.478;2023-03-14T04:53:49;8.82;;;2.42;;
12112;SDS011;6120;52.250;8.478;2023-03-14T04:56:16;8.70;;;3.05;;
12112;SDS011;6120;52.250;8.478;2023-03-14T04:58:42;8.63;;;2.83;;
12112;SDS011;6120;52.250;8.478;2023-03-14T05:01:10;9.63;;;2.63;;
12112;SDS011;6120;52.250;8.478;2023-03-14T05:03:36;9.98;;;2.40;;
12112;SDS011;6120;52.250;8.478;2023-03-14T05:06:04;13.07;;;2.83;;
12112;SDS011;6120;52.250;8.478;2023-03-14T05:08:31;6.97;;;2.40;;
12112;SDS011;6120;52.250;8.478;2023-03-14T05:10:58;6.35;;;1.85;;
12112;SDS011;6120;52.250;8.478;2023-03-14T05:13:24;11.52;;;2.20;;
12112;SDS011;6120;52.250;8.478;2023-03-14T05:15:51;8.13;;;2.60;;
12112;SDS011;6120;52.250;8.478;2023-03-14T05:18:18;8.95;;;2.83;;
12112;SDS011;6120;52.250;8.478;2023-03-14T05:20:45;6.43;;;1.65;;
12112;SDS011;6120;52.250;8.478;2023-03-14T05:23:11;7.45;;;1.67;;
12112;SDS011;6120;52.250;8.478;2023-03-14T05:25:38;14.52;;;2.10;;
12112;SDS011;6120;52.250;8.478;2023-03-14T05:28:04;11.43;;;2.20;;
12112;SDS011;6120;52.250;8.478;2023-03-14T05:30:31;8.02;;;2.25;;
12112;SDS011;6120;52.250;8.478;2023-03-14T05:32:59;8.07;;;2.50;;
12112;SDS011;6120;52.250;8.478;2023-03-14T05:35:26;9.27;;;2.13;;
12112;SDS011;6120;52.250;8.478;2023-03-14T05:37:53;11.35;;;2.40;;
12112;SDS011;6120;52.250;8.478;2023-03-14T05:40:19;7.40;;;2.17;;
12112;SDS011;6120;52.250;8.478;2023-03-14T05:42:46;9.45;;;2.30;;
12112;SDS011;6120;52.250;8.478;2023-03-14T05:45:13;9.00;;;2.58;;
12112;SDS011;6120;52.250;8.478;2023-03-14T05:47:39;9.43;;;2.40;;
12112;SDS011;6120;52.250;8.478;2023-03-14T05:50:06;11.15;;;3.17;;
12112;SDS011;6120;52.250;8.478;2023-03-14T05:52:33;7.88;;;2.05;;
12112;SDS011;6120;52.250;8.478;2023-03-14T05:54:59;7.47;;;1.88;;
12112;SDS011;6120;52.250;8.478;2023-03-14T05:57:26;5.55;;;1.80;;
12112;SDS011;6120;52.250;8.478;2023-03-14T05:59:52;8.80;;;1.92;;
12112;SDS011;6120;52.250;8.478;2023-03-14T06:02:19;8.55;;;2.20;;
12112;SDS011;6120;52.250;8.478;2023-03-14T06:04:46;10.13;;;2.13;;
12112;SDS011;6120;52.250;8.478;2023-03-14T06:07:12;10.48;;;1.80;;
12112;SDS011;6120;52.250;8.478;2023-03-14T06:09:39;5.78;;;1.63;;
12112;SDS011;6120;52.250;8.478;2023-03-14T06:12:05;7.22;;;2.08;;
12112;SDS011;6120;52.250;8.478;2023-03-14T06:14:32;10.00;;;1.50;;
12112;SDS011;6120;52.250;8.478;2023-03-14T06:16:59;8.40;;;1.67;;
12112;SDS011;6120;52.250;8.478;2023-03-14T06:19:25;14.07;;;1.90;;
12112;SDS011;6120;52.250;8.478;2023-03-14T06:21:52;11.65;;;1.40;;
12112;SDS011;6120;52.250;8.478;2023-03-14T06:24:19;8.13;;;1.50;;
12112;SDS011;6120;52.250;8.478;2023-03-14T06:26:45;6.65;;;1.17;;
12112;SDS011;6120;52.250;8.478;2023-03-14T06:29:12;6.78;;;1.45;;
12112;SDS011;6120;52.250;8.478;2023-03-14T06:31:39;7.30;;;1.30;;
12112;SDS011;6120;52.250;8.478;2023-03-14T06:34:06;7.35;;;1.23;;
12112;SDS011;6120;52.250;8.478;2023-03-14T06:36:32;8.63;;;1.50;;
12112;SDS011;6120;52.250;8.478;2023-03-14T06:38:59;5.57;;;1.27;;
12112;SDS011;6120;52.250;8.478;2023-03-14T06:41:26;4.15;;;1.00;;
12112;SDS011;6120;52.250;8.478;2023-03-14T06:43:52;6.30;;;0.90;;
12112;SDS011;6120;52.250;8.478;2023-03-14T06:46:21;2.58;;;0.88;;
12112;SDS011;6120;52.250;8.478;2023-03-14T06:48:48;3.58;;;0.95;;
12112;SDS011;6120;52.250;8.478;2023-03-14T06:51:15;1.88;;;0.68;;
12112;SDS011;6120;52.250;8.478;2023-03-14T06:53:42;4.30;;;0.55;;
12112;SDS011;6120;52.250;8.478;2023-03-14T06:56:08;2.75;;;0.70;;
12112;SDS011;6120;52.250;8.478;2023-03-14T06:58:35;2.90;;;0.77;;
12112;SDS011;6120;52.250;8.478;2023-03-14T07:01:02;0.88;;;0.50;;
12112;SDS011;6120;52.250;8.478;2023-03-14T07:03:29;2.97;;;0.73;;
12112;SDS011;6120;52.250;8.478;2023-03-14T07:05:56;2.33;;;0.77;;
12112;SDS011;6120;52.250;8.478;2023-03-14T07:08:22;2.42;;;0.75;;
12112;SDS011;6120;52.250;8.478;2023-03-14T07:10:49;1.10;;;0.50;;
12112;SDS011;6120;52.250;8.478;2023-03-14T07:13:16;1.83;;;0.63;;
12112;SDS011;6120;52.250;8.478;2023-03-14T07:15:42;3.70;;;0.75;;
12112;SDS011;6120;52.250;8.478;2023-03-14T07:18:09;2.65;;;1.00;;
12112;SDS011;6120;52.250;8.478;2023-03-14T07:20:36;1.92;;;0.80;;
12112;SDS011;6120;52.250;8.478;2023-03-14T07:23:02;2.92;;;0.90;;
12112;SDS011;6120;52.250;8.478;2023-03-14T07:25:29;5.40;;;0.88;;
12112;SDS011;6120;52.250;8.478;2023-03-14T07:27:56;3.63;;;0.70;;
12112;SDS011;6120;52.250;8.478;2023-03-14T07:30:23;3.92;;;0.88;;
12112;SDS011;6120;52.250;8.478;2023-03-14T07:32:50;1.98;;;0.77;;
12112;SDS011;6120;52.250;8.478;2023-03-14T07:35:18;1.52;;;0.90;;
12112;SDS011;6120;52.250;8.478;2023-03-14T07:37:44;3.67;;;1.00;;
12112;SDS011;6120;52.250;8.478;2023-03-14T07:40:11;4.13;;;1.10;;
12112;SDS011;6120;52.250;8.478;2023-03-14T07:42:41;3.50;;;1.30;;
12112;SDS011;6120;52.250;8.478;2023-03-14T07:45:09;2.08;;;1.08;;
12112;SDS011;6120;52.250;8.478;2023-03-14T07:47:37;2.17;;;1.20;;
12112;SDS011;6120;52.250;8.478;2023-03-14T07:50:04;4.18;;;1.15;;
12112;SDS011;6120;52.250;8.478;2023-03-14T07:52:31;2.63;;;1.00;;
12112;SDS011;6120;52.250;8.478;2023-03-14T07:54:58;1.58;;;1.00;;
12112;SDS011;6120;52.250;8.478;2023-03-14T07:57:24;4.93;;;1.13;;
12112;SDS011;6120;52.250;8.478;2023-03-14T07:59:51;1.60;;;1.10;;
12112;SDS011;6120;52.250;8.478;2023-03-14T08:02:18;1.45;;;1.17;;
12112;SDS011;6120;52.250;8.478;2023-03-14T08:04:48;4.40;;;1.30;;
12112;SDS011;6120;52.250;8.478;2023-03-14T08:07:15;3.80;;;1.50;;
12112;SDS011;6120;52.250;8.478;2023-03-14T08:09:42;4.10;;;2.00;;
12112;SDS011;6120;52.250;8.478;2023-03-14T08:12:09;4.10;;;1.40;;
12112;SDS011;6120;52.250;8.478;2023-03-14T08:14:35;3.55;;;1.42;;
12112;SDS011;6120;52.250;8.478;2023-03-14T08:17:02;2.95;;;1.65;;
12112;SDS011;6120;52.250;8.478;2023-03-14T08:19:28;2.38;;;1.60;;
12112;SDS011;6120;52.250;8.478;2023-03-14T08:21:55;3.35;;;1.90;;
12112;SDS011;6120;52.250;8.478;2023-03-14T08:24:22;3.42;;;1.88;;
12112;SDS011;6120;52.250;8.478;2023-03-14T08:26:48;5.28;;;2.22;;
12112;SDS011;6120;52.250;8.478;2023-03-14T08:29:15;4.10;;;2.30;;
12112;SDS011;6120;52.250;8.478;2023-03-14T08:31:41;5.47;;;2.50;;
12112;SDS011;6120;52.250;8.478;2023-03-14T08:34:08;3.40;;;2.13;;
12112;SDS011;6120;52.250;8.478;2023-03-14T08:36:35;3.70;;;2.80;;
12112;SDS011;6120;52.250;8.478;2023-03-14T08:39:02;4.20;;;2.65;;
12112;SDS011;6120;52.250;8.478;2023-03-14T08:41:30;5.00;;;3.10;;
12112;SDS011;6120;52.250;8.478;2023-03-14T08:43:56;5.93;;;3.15;;
12112;SDS011;6120;52.250;8.478;2023-03-14T08:46:23;6.60;;;3.83;;
12112;SDS011;6120;52.250;8.478;2023-03-14T08:48:50;5.28;;;3.55;;
12112;SDS011;6120;52.250;8.478;2023-03-14T08:51:16;5.93;;;3.92;;
12112;SDS011;6120;52.250;8.478;2023-03-14T08:53:44;7.53;;;4.75;;
12112;SDS011;6120;52.250;8.478;2023-03-14T08:56:10;7.57;;;4.72;;
12112;SDS011;6120;52.250;8.478;2023-03-14T08:58:37;6.97;;;4.72;;
12112;SDS011;6120;52.250;8.478;2023-03-14T09:01:08;8.40;;;4.72;;
12112;SDS011;6120;52.250;8.478;2023-03-14T09:03:35;8.38;;;5.32;;
12112;SDS011;6120;52.250;8.478;2023-03-14T09:06:03;9.00;;;5.50;;
12112;SDS011;6120;52.250;8.478;2023-03-14T09:08:30;10.30;;;5.15;;
12112;SDS011;6120;52.250;8.478;2023-03-14T09:10:57;8.30;;;6.00;;
12112;SDS011;6120;52.250;8.478;2023-03-14T09:13:24;8.55;;;6.35;;
12112;SDS011;6120;52.250;8.478;2023-03-14T09:15:51;9.13;;;6.50;;
12112;SDS011;6120;52.250;8.478;2023-03-14T09:18:22;8.40;;;6.28;;
12112;SDS011;6120;52.250;8.478;2023-03-14T09:20:49;8.77;;;6.32;;
12112;SDS011;6120;52.250;8.478;2023-03-14T09:23:16;8.13;;;5.93;;
12112;SDS011;6120;52.250;8.478;2023-03-14T09:25:42;7.38;;;5.82;;
12112;SDS011;6120;52.250;8.478;2023-03-14T09:28:09;7.88;;;6.05;;
12112;SDS011;6120;52.250;8.478;2023-03-14T09:30:35;7.18;;;5.90;;
12112;SDS011;6120;52.250;8.478;2023-03-14T09:33:02;6.63;;;5.38;;
12112;SDS011;6120;52.250;8.478;2023-03-14T09:35:29;9.75;;;5.97;;
12112;SDS011;6120;52.250;8.478;2023-03-14T09:37:56;7.35;;;5.47;;
12112;SDS011;6120;52.250;8.478;2023-03-14T09:40:22;7.28;;;5.70;;
12112;SDS011;6120;52.250;8.478;2023-03-14T09:42:50;7.38;;;6.18;;
12112;SDS011;6120;52.250;8.478;2023-03-14T09:45:23;6.38;;;5.22;;
12112;SDS011;6120;52.250;8.478;2023-03-14T09:47:53;7.60;;;5.80;;
12112;SDS011;6120;52.250;8.478;2023-03-14T09:50:26;6.63;;;5.35;;
12112;SDS011;6120;52.250;8.478;2023-03-14T09:55:24;6.65;;;5.13;;
12112;SDS011;6120;52.250;8.478;2023-03-14T09:57:51;7.07;;;5.07;;
12112;SDS011;6120;52.250;8.478;2023-03-14T10:00:26;8.00;;;5.13;;
12112;SDS011;6120;52.250;8.478;2023-03-14T10:02:55;7.93;;;5.43;;
12112;SDS011;6120;52.250;8.478;2023-03-14T10:05:24;6.20;;;5.13;;
12112;SDS011;6120;52.250;8.478;2023-03-14T10:07:52;5.90;;;4.85;;
12112;SDS011;6120;52.250;8.478;2023-03-14T10:10:20;5.53;;;4.63;;
12112;SDS011;6120;52.250;8.478;2023-03-14T10:12:54;7.25;;;3.83;;
12112;SDS011;6120;52.250;8.478;2023-03-14T10:15:32;2.92;;;1.58;;
12112;SDS011;6120;52.250;8.478;2023-03-14T10:18:01;0.80;;;0.60;;
12112;SDS011;6120;52.250;8.478;2023-03-14T10:25:38;1.30;;;0.52;;
12112;SDS011;6120;52.250;8.478;2023-03-14T10:28:25;1.08;;;0.55;;
12112;SDS011;6120;52.250;8.478;2023-03-14T10:30:56;1.73;;;0.73;;
12112;SDS011;6120;52.250;8.478;2023-03-14T10:33:25;4.20;;;0.60;;
12112;SDS011;6120;52.250;8.478;2023-03-14T10:36:00;1.38;;;0.57;;
12112;SDS011;6120;52.250;8.478;2023-03-14T10:38:37;4.90;;;0.77;;
12112;SDS011;6120;52.250;8.478;2023-03-14T10:41:14;2.55;;;0.75;;
12112;SDS011;6120;52.250;8.478;2023-03-14T10:43:59;0.98;;;0.50;;
12112;SDS011;6120;52.250;8.478;2023-03-14T10:46:29;1.35;;;0.60;;
12112;SDS011;6120;52.250;8.478;2023-03-14T10:48:57;1.55;;;0.65;;
12112;SDS011;6120;52.250;8.478;2023-03-14T10:51:28;1.15;;;0.60;;
12112;SDS011;6120;52.250;8.478;2023-03-14T10:54:01;2.45;;;0.63;;
12112;SDS011;6120;52.250;8.478;2023-03-14T10:56:34;4.95;;;0.57;;
12112;SDS011;6120;52.250;8.478;2023-03-14T10:59:03;1.27;;;0.50;;
12112;SDS011;6120;52.250;8.478;2023-03-14T11:04:13;2.10;;;0.43;;
12112;SDS011;6120;52.250;8.478;2023-03-14T11:09:11;1.38;;;0.50;;
12112;SDS011;6120;52.250;8.478;2023-03-14T11:11:41;3.03;;;0.60;;
12112;SDS011;6120;52.250;8.478;2023-03-14T11:14:16;1.90;;;0.57;;
12112;SDS011;6120;52.250;8.478;2023-03-14T11:17:11;0.75;;;0.55;;
12112;SDS011;6120;52.250;8.478;2023-03-14T11:19:45;0.30;;;0.30;;
12112;SDS011;6120;52.250;8.478;2023-03-14T11:38:28;1.88;;;0.60;;
12112;SDS011;6120;52.250;8.478;2023-03-14T11:40:56;0.82;;;0.50;;
12112;SDS011;6120;52.250;8.478;2023-03-14T11:43:34;0.85;;;0.60;;
12112;SDS011;6120;52.250;8.478;2023-03-14T11:51:23;4.30;;;1.30;;
12112;SDS011;6120;52.250;8.478;2023-03-14T11:53:54;4.60;;;1.20;;
12112;SDS011;6120;52.250;8.478;2023-03-14T11:56:34;6.65;;;1.52;;
12112;SDS011;6120;52.250;8.478;2023-03-14T11:59:05;6.20;;;1.15;;
12112;SDS011;6120;52.250;8.478;2023-03-14T12:01:48;5.45;;;1.58;;
12112;SDS011;6120;52.250;8.478;2023-03-14T12:07:01;6.95;;;1.50;;
12112;SDS011;6120;52.250;8.478;2023-03-14T12:09:31;2.72;;;1.02;;
12112;SDS011;6120;52.250;8.478;2023-03-14T12:11:59;4.63;;;1.75;;
12112;SDS011;6120;52.250;8.478;2023-03-14T12:14:29;5.18;;;1.08;;
12112;SDS011;6120;52.250;8.478;2023-03-14T12:19:35;7.50;;;1.33;;
12112;SDS011;6120;52.250;8.478;2023-03-14T12:24:49;13.63;;;1.30;;
12112;SDS011;6120;52.250;8.478;2023-03-14T12:27:41;5.40;;;1.20;;
12112;SDS011;6120;52.250;8.478;2023-03-14T12:35:44;5.20;;;1.23;;
12112;SDS011;6120;52.250;8.478;2023-03-14T12:43:44;7.43;;;1.20;;
12112;SDS011;6120;52.250;8.478;2023-03-14T12:48:45;7.43;;;1.23;;
12112;SDS011;6120;52.250;8.478;2023-03-14T12:51:15;8.38;;;1.80;;
12112;SDS011;6120;52.250;8.478;2023-03-14T13:01:43;6.50;;;1.58;;
12112;SDS011;6120;52.250;8.478;2023-03-14T13:04:13;11.02;;;1.60;;
12112;SDS011;6120;52.250;8.478;2023-03-14T13:06:58;18.88;;;1.70;;
12112;SDS011;6120;52.250;8.478;2023-03-14T13:11:58;14.77;;;1.80;;
12112;SDS011;6120;52.250;8.478;2023-03-14T13:14:34;17.42;;;3.03;;
12112;SDS011;6120;52.250;8.478;2023-03-14T13:17:01;9.70;;;1.88;;
12112;SDS011;6120;52.250;8.478;2023-03-14T13:19:50;12.38;;;2.25;;
12112;SDS011;6120;52.250;8.478;2023-03-14T13:22:22;19.92;;;3.58;;
12112;SDS011;6120;52.250;8.478;2023-03-14T13:25:09;13.55;;;2.25;;
12112;SDS011;6120;52.250;8.478;2023-03-14T13:27:36;14.88;;;2.20;;
12112;SDS011;6120;52.250;8.478;2023-03-14T13:30:17;22.13;;;2.72;;
12112;SDS011;6120;52.250;8.478;2023-03-14T13:32:54;17.98;;;2.10;;
12112;SDS011;6120;52.250;8.478;2023-03-14T13:35:23;15.60;;;2.03;;
12112;SDS011;6120;52.250;8.478;2023-03-14T13:38:00;16.10;;;2.72;;
12112;SDS011;6120;52.250;8.478;2023-03-14T13:40:43;14.93;;;2.17;;
12112;SDS011;6120;52.250;8.478;2023-03-14T13:48:13;9.52;;;1.58;;
12112;SDS011;6120;52.250;8.478;2023-03-14T13:50:45;9.23;;;1.67;;
12112;SDS011;6120;52.250;8.478;2023-03-14T13:53:15;10.88;;;1.60;;
12112;SDS011;6120;52.250;8.478;2023-03-14T13:55:41;13.90;;;1.90;;
12112;SDS011;6120;52.250;8.478;2023-03-14T13:58:13;11.38;;;1.92;;
12112;SDS011;6120;52.250;8.478;2023-03-14T14:00:57;15.82;;;1.83;;
12112;SDS011;6120;52.250;8.478;2023-03-14T14:03:26;14.20;;;1.63;;
12112;SDS011;6120;52.250;8.478;2023-03-14T14:05:55;11.43;;;1.58;;
12112;SDS011;6120;52.250;8.478;2023-03-14T14:08:23;10.57;;;1.65;;
12112;SDS011;6120;52.250;8.478;2023-03-14T14:10:50;12.52;;;2.33;;
12112;SDS011;6120;52.250;8.478;2023-03-14T14:13:21;12.48;;;1.67;;
12112;SDS011;6120;52.250;8.478;2023-03-14T14:15:50;7.95;;;1.85;;
12112;SDS011;6120;52.250;8.478;2023-03-14T14:18:18;12.43;;;1.95;;
12112;SDS011;6120;52.250;8.478;2023-03-14T14:20:47;13.85;;;2.10;;
12112;SDS011;6120;52.250;8.478;2023-03-14T14:23:18;15.75;;;1.63;;
12112;SDS011;6120;52.250;8.478;2023-03-14T14:25:54;8.40;;;1.25;;
12112;SDS011;6120;52.250;8.478;2023-03-14T14:28:26;10.48;;;1.67;;
12112;SDS011;6120;52.250;8.478;2023-03-14T14:33:39;14.02;;;1.70;;
12112;SDS011;6120;52.250;8.478;2023-03-14T14:36:27;4.03;;;1.27;;
12112;SDS011;6120;52.250;8.478;2023-03-14T14:39:25;9.57;;;1.85;;
12112;SDS011;6120;52.250;8.478;2023-03-14T14:41:55;8.43;;;1.30;;
12112;SDS011;6120;52.250;8.478;2023-03-14T14:44:28;8.60;;;1.55;;
12112;SDS011;6120;52.250;8.478;2023-03-14T14:46:57;8.80;;;1.70;;
12112;SDS011;6120;52.250;8.478;2023-03-14T14:49:29;11.30;;;1.93;;
12112;SDS011;6120;52.250;8.478;2023-03-14T14:52:11;9.45;;;1.55;;
12112;SDS011;6120;52.250;8.478;2023-03-14T14:57:22;9.52;;;1.40;;
12112;SDS011;6120;52.250;8.478;2023-03-14T15:00:06;6.47;;;1.92;;
12112;SDS011;6120;52.250;8.478;2023-03-14T15:02:45;4.93;;;1.10;;
12112;SDS011;6120;52.250;8.478;2023-03-14T15:05:13;9.57;;;1.10;;
12112;SDS011;6120;52.250;8.478;2023-03-14T15:10:15;9.70;;;1.20;;
12112;SDS011;6120;52.250;8.478;2023-03-14T15:12:43;7.13;;;1.00;;
12112;SDS011;6120;52.250;8.478;2023-03-14T15:15:10;3.08;;;1.10;;
12112;SDS011;6120;52.250;8.478;2023-03-14T15:17:38;7.23;;;1.17;;
12112;SDS011;6120;52.250;8.478;2023-03-14T15:20:05;8.05;;;1.30;;
12112;SDS011;6120;52.250;8.478;2023-03-14T15:22:35;6.75;;;1.42;;
12112;SDS011;6120;52.250;8.478;2023-03-14T15:25:02;10.40;;;1.45;;
12112;SDS011;6120;52.250;8.478;2023-03-14T15:27:30;11.07;;;1.48;;
12112;SDS011;6120;52.250;8.478;2023-03-14T15:29:58;8.25;;;1.17;;
12112;SDS011;6120;52.250;8.478;2023-03-14T15:32:26;9.48;;;1.30;;
12112;SDS011;6120;52.250;8.478;2023-03-14T15:34:56;5.55;;;0.98;;
12112;SDS011;6120;52.250;8.478;2023-03-14T15:37:25;8.27;;;1.20;;
12112;SDS011;6120;52.250;8.478;2023-03-14T15:39:51;3.67;;;0.90;;
12112;SDS011;6120;52.250;8.478;2023-03-14T15:42:18;6.47;;;1.30;;
12112;SDS011;6120;52.250;8.478;2023-03-14T15:44:45;6.18;;;1.20;;
12112;SDS011;6120;52.250;8.478;2023-03-14T15:47:11;8.18;;;1.90;;
12112;SDS011;6120;52.250;8.478;2023-03-14T15:49:38;8.32;;;1.15;;
12112;SDS011;6120;52.250;8.478;2023-03-14T15:52:05;14.55;;;3.28;;
12112;SDS011;6120;52.250;8.478;2023-03-14T15:54:34;7.82;;;1.52;;
12112;SDS011;6120;52.250;8.478;2023-03-14T15:57:01;6.50;;;1.00;;
12112;SDS011;6120;52.250;8.478;2023-03-14T15:59:27;7.68;;;1.35;;
12112;SDS011;6120;52.250;8.478;2023-03-14T16:01:54;7.60;;;1.10;;
12112;SDS011;6120;52.250;8.478;2023-03-14T16:04:21;16.05;;;1.75;;
12112;SDS011;6120;52.250;8.478;2023-03-14T16:06:47;7.78;;;1.30;;
12112;SDS011;6120;52.250;8.478;2023-03-14T16:09:14;7.47;;;1.42;;
12112;SDS011;6120;52.250;8.478;2023-03-14T16:11:41;9.95;;;2.13;;
12112;SDS011;6120;52.250;8.478;2023-03-14T16:14:07;3.53;;;0.90;;
12112;SDS011;6120;52.250;8.478;2023-03-14T16:16:34;6.05;;;1.40;;
12112;SDS011;6120;52.250;8.478;2023-03-14T16:19:01;7.85;;;2.00;;
12112;SDS011;6120;52.250;8.478;2023-03-14T16:21:28;8.48;;;2.17;;
12112;SDS011;6120;52.250;8.478;2023-03-14T16:23:55;9.43;;;1.58;;
12112;SDS011;6120;52.250;8.478;2023-03-14T16:26:21;9.95;;;1.48;;
12112;SDS011;6120;52.250;8.478;2023-03-14T16:28:48;9.68;;;1.55;;
12112;SDS011;6120;52.250;8.478;2023-03-14T16:31:16;10.80;;;1.38;;
12112;SDS011;6120;52.250;8.478;2023-03-14T16:33:44;11.13;;;2.35;;
12112;SDS011;6120;52.250;8.478;2023-03-14T16:36:11;6.75;;;1.52;;
12112;SDS011;6120;52.250;8.478;2023-03-14T16:38:39;5.88;;;1.50;;
12112;SDS011;6120;52.250;8.478;2023-03-14T16:41:11;10.48;;;1.50;;